createdAt,value
2018-03-15T00:00:06.115Z,0
2018-03-15T00:01:14.942Z,0
2018-03-15T00:02:23.920Z,0
2018-03-15T00:03:32.749Z,0
2018-03-15T00:04:41.576Z,0
2018-03-15T00:05:50.405Z,0
2018-03-15T00:06:59.234Z,0
2018-03-15T00:08:08.214Z,0
2018-03-15T00:09:17.043Z,0
2018-03-15T00:10:26.147Z,0
2018-03-15T00:11:34.976Z,0
2018-03-15T00:12:43.804Z,0
2018-03-15T00:13:52.731Z,0
2018-03-15T00:15:01.562Z,0
2018-03-15T00:16:10.388Z,0
2018-03-15T00:17:19.216Z,0
2018-03-15T00:18:28.046Z,0
2018-03-15T00:19:36.872Z,0
2018-03-15T00:20:45.700Z,0
2018-03-15T00:21:54.529Z,0
2018-03-15T00:23:03.352Z,0
2018-03-15T00:24:12.181Z,0
2018-03-15T00:25:21.159Z,0
2018-03-15T00:26:29.985Z,0
2018-03-15T00:27:38.814Z,0
2018-03-15T00:28:47.641Z,0
2018-03-15T00:29:56.467Z,0
2018-03-15T00:31:05.454Z,0
2018-03-15T00:32:14.565Z,0
2018-03-15T00:33:23.396Z,0
2018-03-15T00:34:32.224Z,0
2018-03-15T00:35:41.330Z,0
2018-03-15T00:36:50.210Z,0
2018-03-15T00:37:59.038Z,0
2018-03-15T00:39:07.865Z,0
2018-03-15T00:40:16.690Z,0
2018-03-15T00:41:25.514Z,0
2018-03-15T00:42:34.342Z,0
2018-03-15T00:43:43.170Z,0
2018-03-15T00:44:51.994Z,0
2018-03-15T00:46:00.822Z,0
2018-03-15T00:47:09.650Z,0
2018-03-15T00:48:19.055Z,0
2018-03-15T00:49:27.880Z,0
2018-03-15T00:50:36.711Z,0
2018-03-15T00:51:45.540Z,0
2018-03-15T00:52:54.363Z,0
2018-03-15T00:54:03.294Z,0
2018-03-15T00:55:12.122Z,0
2018-03-15T00:56:20.949Z,0
2018-03-15T00:57:29.778Z,0
2018-03-15T00:58:38.608Z,0
2018-03-15T00:59:47.434Z,0
2018-03-15T01:00:56.261Z,0
2018-03-15T01:02:05.362Z,0
2018-03-15T01:03:14.188Z,0
2018-03-15T01:04:23.017Z,0
2018-03-15T01:05:31.896Z,0
2018-03-15T01:06:40.724Z,0
2018-03-15T01:07:49.555Z,0
2018-03-15T01:08:58.657Z,0
2018-03-15T01:10:07.484Z,0
2018-03-15T01:11:16.460Z,0
2018-03-15T01:12:25.288Z,0
2018-03-15T01:13:34.114Z,0
2018-03-15T01:14:42.943Z,0
2018-03-15T01:15:52.050Z,0
2018-03-15T01:17:01.030Z,0
2018-03-15T01:18:10.131Z,0
2018-03-15T01:19:18.960Z,0
2018-03-15T01:20:27.787Z,0
2018-03-15T01:21:36.618Z,0
2018-03-15T01:22:45.450Z,0
2018-03-15T01:23:54.275Z,0
2018-03-15T01:25:03.102Z,0
2018-03-15T01:26:11.930Z,0
2018-03-15T01:27:20.756Z,0
2018-03-15T01:28:29.586Z,0
2018-03-15T01:29:38.410Z,0
2018-03-15T01:30:47.236Z,0
2018-03-15T01:31:56.063Z,0
2018-03-15T01:33:04.889Z,0
2018-03-15T01:34:13.717Z,0
2018-03-15T01:35:22.821Z,0
2018-03-15T01:36:31.648Z,0
2018-03-15T01:37:40.474Z,0
2018-03-15T01:38:49.300Z,0
2018-03-15T01:39:58.127Z,0
2018-03-15T01:41:06.953Z,0
2018-03-15T01:42:15.777Z,0
2018-03-15T01:43:24.606Z,0
2018-03-15T01:44:33.432Z,0
2018-03-15T01:45:42.258Z,0
2018-03-15T01:46:51.085Z,0
2018-03-15T01:47:59.912Z,0
2018-03-15T01:49:08.740Z,0
2018-03-15T01:50:17.569Z,0
2018-03-15T01:51:26.395Z,0
2018-03-15T01:52:35.220Z,0
2018-03-15T01:53:44.049Z,0
2018-03-15T01:54:52.875Z,0
2018-03-15T01:56:01.975Z,0
2018-03-15T01:57:11.101Z,0
2018-03-15T01:58:19.928Z,0
2018-03-15T01:59:28.752Z,0
2018-03-15T02:00:37.588Z,0
2018-03-15T02:01:46.695Z,0
2018-03-15T02:02:55.819Z,0
2018-03-15T02:04:04.649Z,0
2018-03-15T02:05:13.475Z,0
2018-03-15T02:06:22.301Z,0
2018-03-15T02:07:31.128Z,0
2018-03-15T02:08:40.329Z,0
2018-03-15T02:09:49.160Z,0
2018-03-15T02:10:57.986Z,0
2018-03-15T02:12:07.092Z,0
2018-03-15T02:13:15.921Z,0
2018-03-15T02:14:24.750Z,0
2018-03-15T02:15:33.575Z,0
2018-03-15T02:16:42.720Z,0
2018-03-15T02:17:51.504Z,0
2018-03-15T02:19:00.334Z,0
2018-03-15T02:20:09.267Z,0
2018-03-15T02:21:18.362Z,0
2018-03-15T02:22:27.188Z,0
2018-03-15T02:23:36.014Z,0
2018-03-15T02:24:44.840Z,0
2018-03-15T02:25:53.667Z,0
2018-03-15T02:27:02.491Z,0
2018-03-15T02:28:11.599Z,0
2018-03-15T02:29:20.431Z,0
2018-03-15T02:30:29.535Z,0
2018-03-15T02:31:38.512Z,0
2018-03-15T02:32:47.340Z,0
2018-03-15T02:33:56.169Z,0
2018-03-15T02:35:04.996Z,0
2018-03-15T02:36:13.820Z,0
2018-03-15T02:37:22.655Z,0
2018-03-15T02:38:31.756Z,0
2018-03-15T02:39:40.862Z,0
2018-03-15T02:40:49.688Z,0
2018-03-15T02:41:58.514Z,0
2018-03-15T02:43:07.624Z,0
2018-03-15T02:44:16.450Z,0
2018-03-15T02:45:25.277Z,0
2018-03-15T02:46:34.382Z,0
2018-03-15T02:47:43.211Z,0
2018-03-15T02:48:52.142Z,0
2018-03-15T02:50:00.967Z,0
2018-03-15T02:51:09.794Z,0
2018-03-15T02:52:18.621Z,0
2018-03-15T02:53:27.447Z,0
2018-03-15T02:54:36.425Z,0
2018-03-15T02:55:45.536Z,0
2018-03-15T02:56:54.357Z,0
2018-03-15T02:58:03.189Z,0
2018-03-15T02:59:12.016Z,0
2018-03-15T03:00:21.141Z,0
2018-03-15T03:01:29.976Z,0
2018-03-15T03:02:38.805Z,0
2018-03-15T03:03:47.635Z,0
2018-03-15T03:04:56.740Z,0
2018-03-15T03:06:05.719Z,0
2018-03-15T03:07:14.551Z,0
2018-03-15T03:08:23.378Z,0
2018-03-15T03:09:32.203Z,0
2018-03-15T03:10:41.031Z,0
2018-03-15T03:11:49.857Z,0
2018-03-15T03:12:58.687Z,0
2018-03-15T03:14:07.518Z,0
2018-03-15T03:15:16.346Z,0
2018-03-15T03:16:25.174Z,0
2018-03-15T03:17:34.277Z,0
2018-03-15T03:18:43.104Z,0
2018-03-15T03:19:51.933Z,0
2018-03-15T03:21:00.760Z,0
2018-03-15T03:22:09.586Z,0
2018-03-15T03:23:18.561Z,0
2018-03-15T03:24:27.387Z,0
2018-03-15T03:25:36.493Z,0
2018-03-15T03:26:45.320Z,0
2018-03-15T03:27:54.147Z,0
2018-03-15T03:29:03.123Z,0
2018-03-15T03:30:11.955Z,0
2018-03-15T03:31:20.792Z,0
2018-03-15T03:32:29.618Z,0
2018-03-15T03:33:38.446Z,0
2018-03-15T03:34:47.544Z,0
2018-03-15T03:35:56.370Z,0
2018-03-15T03:37:05.200Z,0
2018-03-15T03:38:14.028Z,0
2018-03-15T03:39:23.135Z,0
2018-03-15T03:40:31.963Z,0
2018-03-15T03:41:40.789Z,0
2018-03-15T03:42:49.616Z,0
2018-03-15T03:43:58.719Z,0
2018-03-15T03:45:07.546Z,0
2018-03-15T03:46:16.775Z,0
2018-03-15T03:47:25.603Z,0
2018-03-15T03:48:34.706Z,0
2018-03-15T03:49:43.530Z,0
2018-03-15T03:50:52.635Z,0
2018-03-15T03:52:01.837Z,0
2018-03-15T03:53:10.659Z,0
2018-03-15T03:54:19.588Z,0
2018-03-15T03:55:28.414Z,0
2018-03-15T03:56:37.240Z,0
2018-03-15T03:57:46.066Z,0
2018-03-15T03:58:54.890Z,0
2018-03-15T04:00:03.997Z,0
2018-03-15T04:01:12.826Z,0
2018-03-15T04:02:21.650Z,0
2018-03-15T04:03:30.577Z,0
2018-03-15T04:04:39.681Z,0
2018-03-15T04:05:48.507Z,0
2018-03-15T04:06:57.333Z,0
2018-03-15T04:08:06.159Z,0
2018-03-15T04:09:15.260Z,0
2018-03-15T04:10:24.092Z,0
2018-03-15T04:11:32.922Z,0
2018-03-15T04:12:42.020Z,0
2018-03-15T04:13:50.851Z,0
2018-03-15T04:14:59.996Z,0
2018-03-15T04:16:09.096Z,0
2018-03-15T04:17:17.925Z,0
2018-03-15T04:18:26.751Z,0
2018-03-15T04:19:35.578Z,0
2018-03-15T04:20:44.405Z,0
2018-03-15T04:21:53.232Z,0
2018-03-15T04:23:02.111Z,0
2018-03-15T04:24:10.936Z,0
2018-03-15T04:25:20.038Z,0
2018-03-15T04:26:28.967Z,0
2018-03-15T04:27:37.802Z,0
2018-03-15T04:28:46.627Z,0
2018-03-15T04:29:55.735Z,0
2018-03-15T04:31:04.557Z,0
2018-03-15T04:32:13.384Z,0
2018-03-15T04:33:22.211Z,0
2018-03-15T04:34:31.311Z,0
2018-03-15T04:35:40.139Z,0
2018-03-15T04:36:48.961Z,0
2018-03-15T04:37:57.791Z,0
2018-03-15T04:39:06.616Z,0
2018-03-15T04:40:15.442Z,0
2018-03-15T04:41:24.271Z,0
2018-03-15T04:42:33.651Z,0
2018-03-15T04:43:42.483Z,0
2018-03-15T04:44:51.305Z,0
2018-03-15T04:46:00.134Z,0
2018-03-15T04:47:09.251Z,0
2018-03-15T04:48:18.351Z,0
2018-03-15T04:49:27.278Z,0
2018-03-15T04:50:36.103Z,0
2018-03-15T04:51:44.930Z,0
2018-03-15T04:52:53.756Z,0
2018-03-15T04:54:02.585Z,0
2018-03-15T04:55:11.686Z,0
2018-03-15T04:56:20.512Z,0
2018-03-15T04:57:29.341Z,0
2018-03-15T04:58:38.165Z,0
2018-03-15T04:59:46.990Z,0
2018-03-15T05:00:55.819Z,0
2018-03-15T05:02:04.644Z,0
2018-03-15T05:03:13.472Z,0
2018-03-15T05:04:22.302Z,0
2018-03-15T05:05:31.128Z,0
2018-03-15T05:06:40.054Z,0
2018-03-15T05:07:48.885Z,0
2018-03-15T05:08:57.709Z,0
2018-03-15T05:10:06.536Z,0
2018-03-15T05:11:15.360Z,0
2018-03-15T05:12:24.336Z,0
2018-03-15T05:13:33.160Z,0
2018-03-15T05:14:41.989Z,0
2018-03-15T05:15:50.815Z,0
2018-03-15T05:16:59.643Z,0
2018-03-15T05:18:08.520Z,0
2018-03-15T05:19:17.346Z,0
2018-03-15T05:20:26.174Z,0
2018-03-15T05:21:35.000Z,0
2018-03-15T05:22:43.831Z,0
2018-03-15T05:23:52.960Z,0
2018-03-15T05:25:02.073Z,0
2018-03-15T05:26:10.901Z,0
2018-03-15T05:27:19.780Z,0
2018-03-15T05:28:28.604Z,0
2018-03-15T05:29:37.588Z,0
2018-03-15T05:30:46.414Z,0
2018-03-15T05:31:55.519Z,0
2018-03-15T05:33:04.345Z,5
2018-03-15T05:34:13.174Z,5
2018-03-15T05:35:22.099Z,5
2018-03-15T05:36:31.203Z,5
2018-03-15T05:37:40.026Z,5
2018-03-15T05:38:48.853Z,5
2018-03-15T05:39:57.680Z,10
2018-03-15T05:41:06.558Z,10
2018-03-15T05:42:15.384Z,10
2018-03-15T05:43:24.211Z,10
2018-03-15T05:44:33.039Z,15
2018-03-15T05:45:41.868Z,15
2018-03-15T05:46:50.692Z,15
2018-03-15T05:47:59.518Z,20
2018-03-15T05:49:08.902Z,20
2018-03-15T05:50:17.731Z,20
2018-03-15T05:51:26.611Z,25
2018-03-15T05:52:35.784Z,25
2018-03-15T05:53:44.613Z,25
2018-03-15T05:54:53.713Z,30
2018-03-15T05:56:02.544Z,30
2018-03-15T05:57:11.649Z,30
2018-03-15T05:58:20.856Z,35
2018-03-15T05:59:29.684Z,35
2018-03-15T06:00:38.509Z,35
2018-03-15T06:01:47.618Z,40
2018-03-15T06:02:56.444Z,40
2018-03-15T06:04:05.270Z,40
2018-03-15T06:05:14.099Z,40
2018-03-15T06:06:22.923Z,40
2018-03-15T06:07:31.765Z,40
2018-03-15T06:08:40.576Z,45
2018-03-15T06:09:49.402Z,45
2018-03-15T06:10:58.228Z,50
2018-03-15T06:12:07.056Z,50
2018-03-15T06:13:15.883Z,55
2018-03-15T06:14:24.710Z,55
2018-03-15T06:15:33.916Z,60
2018-03-15T06:16:43.026Z,65
2018-03-15T06:17:51.847Z,65
2018-03-15T06:19:00.674Z,65
2018-03-15T06:20:09.776Z,70
2018-03-15T06:21:18.654Z,70
2018-03-15T06:22:27.757Z,75
2018-03-15T06:23:36.589Z,75
2018-03-15T06:24:45.417Z,80
2018-03-15T06:25:54.245Z,80
2018-03-15T06:27:03.227Z,90
2018-03-15T06:28:12.050Z,85
2018-03-15T06:29:21.151Z,90
2018-03-15T06:30:29.978Z,85
2018-03-15T06:31:38.807Z,95
2018-03-15T06:32:48.213Z,90
2018-03-15T06:33:57.043Z,95
2018-03-15T06:35:05.871Z,95
2018-03-15T06:36:14.697Z,100
2018-03-15T06:37:23.525Z,100
2018-03-15T06:38:32.402Z,110
2018-03-15T06:39:41.228Z,100
2018-03-15T06:40:50.054Z,110
2018-03-15T06:41:58.885Z,110
2018-03-15T06:43:07.711Z,110
2018-03-15T06:44:16.962Z,110
2018-03-15T06:45:25.789Z,110
2018-03-15T06:46:34.617Z,115
2018-03-15T06:47:43.446Z,115
2018-03-15T06:48:52.590Z,115
2018-03-15T06:50:01.419Z,115
2018-03-15T06:51:10.248Z,115
2018-03-15T06:52:19.073Z,120
2018-03-15T06:53:27.905Z,115
2018-03-15T06:54:36.734Z,115
2018-03-15T06:55:45.660Z,125
2018-03-15T06:56:54.489Z,120
2018-03-15T06:58:03.319Z,120
2018-03-15T06:59:12.146Z,120
2018-03-15T07:00:20.979Z,125
2018-03-15T07:01:30.483Z,125
2018-03-15T07:02:39.308Z,125
2018-03-15T07:03:48.449Z,125
2018-03-15T07:04:57.241Z,125
2018-03-15T07:06:06.069Z,130
2018-03-15T07:07:14.897Z,130
2018-03-15T07:08:23.726Z,130
2018-03-15T07:09:32.553Z,130
2018-03-15T07:10:41.381Z,130
2018-03-15T07:11:50.212Z,135
2018-03-15T07:12:59.183Z,145
2018-03-15T07:14:08.288Z,140
2018-03-15T07:15:17.667Z,135
2018-03-15T07:16:26.496Z,140
2018-03-15T07:17:35.325Z,135
2018-03-15T07:18:44.255Z,145
2018-03-15T07:19:53.357Z,145
2018-03-15T07:21:02.184Z,145
2018-03-15T07:22:11.014Z,140
2018-03-15T07:23:19.841Z,145
2018-03-15T07:24:28.818Z,145
2018-03-15T07:25:37.646Z,145
2018-03-15T07:26:46.472Z,145
2018-03-15T07:27:55.303Z,150
2018-03-15T07:29:04.140Z,145
2018-03-15T07:30:13.108Z,150
2018-03-15T07:31:22.216Z,150
2018-03-15T07:32:31.317Z,150
2018-03-15T07:33:40.146Z,150
2018-03-15T07:34:48.975Z,150
2018-03-15T07:35:57.803Z,155
2018-03-15T07:37:06.636Z,155
2018-03-15T07:38:15.458Z,155
2018-03-15T07:39:24.293Z,155
2018-03-15T07:40:33.393Z,160
2018-03-15T07:41:42.222Z,155
2018-03-15T07:42:51.056Z,160
2018-03-15T07:43:59.884Z,165
2018-03-15T07:45:08.711Z,170
2018-03-15T07:46:17.541Z,170
2018-03-15T07:47:26.368Z,180
2018-03-15T07:48:35.199Z,195
2018-03-15T07:49:44.021Z,180
2018-03-15T07:50:52.863Z,205
2018-03-15T07:52:02.010Z,215
2018-03-15T07:53:10.837Z,195
2018-03-15T07:54:19.667Z,215
2018-03-15T07:55:28.777Z,250
2018-03-15T07:56:37.604Z,245
2018-03-15T07:57:46.434Z,255
2018-03-15T07:58:55.537Z,235
2018-03-15T08:00:04.648Z,225
2018-03-15T08:01:13.477Z,255
2018-03-15T08:02:22.585Z,230
2018-03-15T08:03:31.765Z,265
2018-03-15T08:04:40.594Z,225
2018-03-15T08:05:49.423Z,215
2018-03-15T08:06:58.254Z,240
2018-03-15T08:08:07.080Z,220
2018-03-15T08:09:15.907Z,200
2018-03-15T08:10:24.740Z,220
2018-03-15T08:11:34.017Z,240
2018-03-15T08:12:42.848Z,200
2018-03-15T08:13:51.679Z,215
2018-03-15T08:15:00.805Z,175
2018-03-15T08:16:09.633Z,180
2018-03-15T08:17:18.461Z,210
2018-03-15T08:18:27.290Z,210
2018-03-15T08:19:36.126Z,220
2018-03-15T08:20:44.955Z,185
2018-03-15T08:21:53.792Z,185
2018-03-15T08:23:02.614Z,175
2018-03-15T08:24:11.443Z,185
2018-03-15T08:25:20.271Z,200
2018-03-15T08:26:29.122Z,200
2018-03-15T08:27:37.929Z,190
2018-03-15T08:28:46.758Z,220
2018-03-15T08:29:55.602Z,225
2018-03-15T08:31:04.418Z,235
2018-03-15T08:32:13.596Z,235
2018-03-15T08:33:22.453Z,255
2018-03-15T08:34:31.254Z,250
2018-03-15T08:35:40.083Z,320
2018-03-15T08:36:48.914Z,330
2018-03-15T08:37:57.746Z,305
2018-03-15T08:39:06.575Z,320
2018-03-15T08:40:15.407Z,305
2018-03-15T08:41:24.232Z,290
2018-03-15T08:42:33.062Z,330
2018-03-15T08:43:41.892Z,330
2018-03-15T08:44:50.725Z,325
2018-03-15T08:45:59.554Z,345
2018-03-15T08:47:08.384Z,355
2018-03-15T08:48:17.214Z,355
2018-03-15T08:49:26.381Z,380
2018-03-15T08:50:35.206Z,330
2018-03-15T08:51:44.066Z,295
2018-03-15T08:52:52.867Z,335
2018-03-15T08:54:01.699Z,335
2018-03-15T08:55:10.779Z,335
2018-03-15T08:56:19.609Z,345
2018-03-15T08:57:28.440Z,310
2018-03-15T08:58:37.551Z,325
2018-03-15T08:59:46.381Z,390
2018-03-15T09:00:55.261Z,315
2018-03-15T09:02:04.093Z,320
2018-03-15T09:03:12.924Z,315
2018-03-15T09:04:21.937Z,395
2018-03-15T09:05:31.041Z,345
2018-03-15T09:06:40.578Z,340
2018-03-15T09:07:49.403Z,410
2018-03-15T09:08:58.283Z,355
2018-03-15T09:10:07.066Z,370
2018-03-15T09:11:15.897Z,370
2018-03-15T09:12:25.162Z,365
2018-03-15T09:13:34.267Z,320
2018-03-15T09:14:43.374Z,310
2018-03-15T09:15:52.209Z,290
2018-03-15T09:17:01.095Z,320
2018-03-15T09:18:10.023Z,400
2018-03-15T09:19:19.134Z,370
2018-03-15T09:20:27.964Z,295
2018-03-15T09:21:36.799Z,340
2018-03-15T09:22:45.631Z,385
2018-03-15T09:23:54.615Z,380
2018-03-15T09:25:03.447Z,320
2018-03-15T09:26:12.280Z,395
2018-03-15T09:27:21.109Z,385
2018-03-15T09:28:29.942Z,365
2018-03-15T09:29:39.120Z,365
2018-03-15T09:30:47.954Z,345
2018-03-15T09:31:56.790Z,355
2018-03-15T09:33:05.617Z,365
2018-03-15T09:34:14.449Z,380
2018-03-15T09:35:23.582Z,350
2018-03-15T09:36:32.412Z,405
2018-03-15T09:37:41.244Z,380
2018-03-15T09:38:50.076Z,395
2018-03-15T09:39:59.190Z,465
2018-03-15T09:41:08.023Z,470
2018-03-15T09:42:16.857Z,455
2018-03-15T09:43:25.686Z,385
2018-03-15T09:44:34.519Z,440
2018-03-15T09:45:43.355Z,485
2018-03-15T09:46:52.670Z,435
2018-03-15T09:48:01.814Z,410
2018-03-15T09:49:10.642Z,385
2018-03-15T09:50:19.474Z,415
2018-03-15T09:51:28.306Z,380
2018-03-15T09:52:37.241Z,365
2018-03-15T09:53:46.072Z,455
2018-03-15T09:54:54.911Z,505
2018-03-15T09:56:03.736Z,420
2018-03-15T09:57:12.568Z,405
2018-03-15T09:58:21.407Z,445
2018-03-15T09:59:30.235Z,430
2018-03-15T10:00:39.069Z,435
2018-03-15T10:01:47.900Z,490
2018-03-15T10:02:56.732Z,470
2018-03-15T10:04:05.562Z,460
2018-03-15T10:05:14.397Z,405
2018-03-15T10:06:23.227Z,400
2018-03-15T10:07:32.058Z,425
2018-03-15T10:08:40.890Z,500
2018-03-15T10:09:49.874Z,390
2018-03-15T10:10:58.707Z,410
2018-03-15T10:12:07.538Z,370
2018-03-15T10:13:16.370Z,445
2018-03-15T10:14:25.204Z,470
2018-03-15T10:15:34.085Z,380
2018-03-15T10:16:42.916Z,400
2018-03-15T10:17:51.750Z,385
2018-03-15T10:19:00.586Z,355
2018-03-15T10:20:09.418Z,375
2018-03-15T10:21:18.400Z,460
2018-03-15T10:22:27.230Z,410
2018-03-15T10:23:36.063Z,420
2018-03-15T10:24:44.896Z,410
2018-03-15T10:25:53.727Z,400
2018-03-15T10:27:02.558Z,450
2018-03-15T10:28:11.420Z,485
2018-03-15T10:29:20.227Z,490
2018-03-15T10:30:30.216Z,505
2018-03-15T10:31:39.050Z,555
2018-03-15T10:32:47.934Z,515
2018-03-15T10:33:56.766Z,550
2018-03-15T10:35:05.601Z,480
2018-03-15T10:36:15.181Z,540
2018-03-15T10:37:25.424Z,525
2018-03-15T10:38:34.541Z,525
2018-03-15T10:39:43.373Z,530
2018-03-15T10:40:52.206Z,530
2018-03-15T10:42:01.040Z,625
2018-03-15T10:43:10.168Z,560
2018-03-15T10:44:19.300Z,590
2018-03-15T10:45:28.132Z,530
2018-03-15T10:46:37.529Z,520
2018-03-15T10:47:46.362Z,575
2018-03-15T10:48:55.193Z,540
2018-03-15T10:50:04.278Z,515
2018-03-15T10:51:13.112Z,530
2018-03-15T10:52:21.996Z,565
2018-03-15T10:53:30.829Z,505
2018-03-15T10:54:39.663Z,530
2018-03-15T10:55:48.803Z,460
2018-03-15T10:56:57.635Z,585
2018-03-15T10:58:06.471Z,575
2018-03-15T10:59:15.302Z,530
2018-03-15T11:00:24.187Z,555
2018-03-15T11:01:33.173Z,495
2018-03-15T11:02:42.006Z,620
2018-03-15T11:03:50.842Z,505
2018-03-15T11:04:59.676Z,515
2018-03-15T11:06:08.513Z,515
2018-03-15T11:07:17.347Z,465
2018-03-15T11:08:26.180Z,530
2018-03-15T11:09:35.014Z,520
2018-03-15T11:10:43.847Z,480
2018-03-15T11:11:52.678Z,495
2018-03-15T11:13:01.512Z,480
2018-03-15T11:14:10.347Z,515
2018-03-15T11:15:19.179Z,530
2018-03-15T11:16:28.012Z,605
2018-03-15T11:17:36.846Z,575
2018-03-15T11:18:45.685Z,530
2018-03-15T11:19:54.516Z,535
2018-03-15T11:21:03.349Z,535
2018-03-15T11:22:13.069Z,590
2018-03-15T11:23:21.904Z,600
2018-03-15T11:24:30.888Z,605
2018-03-15T11:25:39.724Z,655
2018-03-15T11:26:48.558Z,635
2018-03-15T11:27:57.392Z,635
2018-03-15T11:29:06.224Z,605
2018-03-15T11:30:15.357Z,685
2018-03-15T11:31:24.189Z,615
2018-03-15T11:32:33.024Z,550
2018-03-15T11:33:41.858Z,590
2018-03-15T11:34:50.692Z,570
2018-03-15T11:35:59.676Z,585
2018-03-15T11:37:08.511Z,610
2018-03-15T11:38:17.345Z,630
2018-03-15T11:39:26.182Z,580
2018-03-15T11:40:35.317Z,465
2018-03-15T11:41:44.252Z,545
2018-03-15T11:42:53.084Z,615
2018-03-15T11:44:01.919Z,715
2018-03-15T11:45:10.752Z,615
2018-03-15T11:46:19.586Z,505
2018-03-15T11:47:29.783Z,490
2018-03-15T11:48:38.616Z,460
2018-03-15T11:49:47.447Z,460
2018-03-15T11:50:56.288Z,445
2018-03-15T11:52:05.124Z,455
2018-03-15T11:53:14.067Z,445
2018-03-15T11:54:22.899Z,430
2018-03-15T11:55:31.777Z,490
2018-03-15T11:56:40.865Z,470
2018-03-15T11:57:50.262Z,525
2018-03-15T11:58:59.399Z,520
2018-03-15T12:00:09.148Z,525
2018-03-15T12:01:18.285Z,475
2018-03-15T12:02:27.474Z,510
2018-03-15T12:03:36.320Z,560
2018-03-15T12:04:46.169Z,515
2018-03-15T12:05:55.060Z,525
2018-03-15T12:07:04.264Z,610
2018-03-15T12:08:13.107Z,625
2018-03-15T12:09:21.955Z,600
2018-03-15T12:10:31.426Z,560
2018-03-15T12:11:40.305Z,515
2018-03-15T12:12:49.291Z,490
2018-03-15T12:13:58.154Z,535
2018-03-15T12:15:07.529Z,475
2018-03-15T12:16:17.226Z,475
2018-03-15T12:17:26.062Z,530
2018-03-15T12:18:34.928Z,545
2018-03-15T12:19:44.047Z,535
2018-03-15T12:20:53.164Z,530
2018-03-15T12:22:02.252Z,550
2018-03-15T12:23:11.315Z,965
2018-03-15T12:24:20.662Z,700
2018-03-15T12:25:29.546Z,670
2018-03-15T12:26:38.405Z,660
2018-03-15T12:27:47.285Z,635
2018-03-15T12:28:56.768Z,605
2018-03-15T12:30:05.927Z,675
2018-03-15T12:31:14.825Z,650
2018-03-15T12:32:24.003Z,1405
2018-03-15T12:33:33.103Z,590
2018-03-15T12:34:42.398Z,710
2018-03-15T12:35:51.512Z,630
2018-03-15T12:37:00.955Z,585
2018-03-15T12:38:09.793Z,675
2018-03-15T12:39:18.737Z,660
2018-03-15T12:40:27.656Z,620
2018-03-15T12:41:37.417Z,605
2018-03-15T12:42:46.407Z,565
2018-03-15T12:43:55.477Z,790
2018-03-15T12:45:04.902Z,1360
2018-03-15T12:46:13.946Z,1120
2018-03-15T12:47:23.354Z,680
2018-03-15T12:48:32.449Z,590
2018-03-15T12:49:41.338Z,605
2018-03-15T12:50:50.692Z,530
2018-03-15T12:51:59.528Z,680
2018-03-15T12:53:08.369Z,1515
2018-03-15T12:54:17.196Z,1305
2018-03-15T12:55:26.132Z,1530
2018-03-15T12:56:35.016Z,650
2018-03-15T12:57:44.129Z,790
2018-03-15T12:58:52.966Z,1090
2018-03-15T13:00:01.805Z,1475
2018-03-15T13:01:10.639Z,1380
2018-03-15T13:02:19.524Z,690
2018-03-15T13:03:28.362Z,625
2018-03-15T13:04:37.196Z,585
2018-03-15T13:05:46.033Z,1355
2018-03-15T13:06:54.870Z,600
2018-03-15T13:08:03.866Z,935
2018-03-15T13:09:12.704Z,750
2018-03-15T13:10:21.542Z,640
2018-03-15T13:11:30.378Z,645
2018-03-15T13:12:39.217Z,660
2018-03-15T13:13:48.154Z,700
2018-03-15T13:14:56.990Z,710
2018-03-15T13:16:05.828Z,650
2018-03-15T13:17:14.667Z,665
2018-03-15T13:18:23.502Z,730
2018-03-15T13:19:32.490Z,725
2018-03-15T13:20:41.329Z,760
2018-03-15T13:21:50.179Z,615
2018-03-15T13:22:59.327Z,515
2018-03-15T13:24:08.131Z,560
2018-03-15T13:25:17.245Z,720
2018-03-15T13:26:26.080Z,755
2018-03-15T13:27:35.189Z,830
2018-03-15T13:28:44.029Z,600
2018-03-15T13:29:52.965Z,625
2018-03-15T13:31:01.804Z,615
2018-03-15T13:32:10.637Z,655
2018-03-15T13:33:19.487Z,720
2018-03-15T13:34:28.322Z,870
2018-03-15T13:35:37.157Z,780
2018-03-15T13:36:45.991Z,1065
2018-03-15T13:37:54.826Z,940
2018-03-15T13:39:03.665Z,700
2018-03-15T13:40:13.354Z,680
2018-03-15T13:41:22.186Z,865
2018-03-15T13:42:31.023Z,860
2018-03-15T13:43:39.857Z,785
2018-03-15T13:44:48.743Z,1090
2018-03-15T13:45:57.579Z,1130
2018-03-15T13:47:06.417Z,830
2018-03-15T13:48:15.258Z,960
2018-03-15T13:49:24.094Z,1160
2018-03-15T13:50:32.931Z,1185
2018-03-15T13:51:41.771Z,1500
2018-03-15T13:52:50.650Z,1625
2018-03-15T13:53:59.442Z,1315
2018-03-15T13:55:08.280Z,1365
2018-03-15T13:56:17.118Z,1375
2018-03-15T13:57:26.234Z,1410
2018-03-15T13:58:35.072Z,1380
2018-03-15T13:59:44.194Z,1295
2018-03-15T14:00:53.033Z,1455
2018-03-15T14:02:02.122Z,925
2018-03-15T14:03:10.960Z,820
2018-03-15T14:04:19.797Z,765
2018-03-15T14:05:28.639Z,1215
2018-03-15T14:06:37.475Z,805
2018-03-15T14:07:46.719Z,820
2018-03-15T14:08:55.893Z,715
2018-03-15T14:10:05.007Z,1215
2018-03-15T14:11:13.845Z,1475
2018-03-15T14:12:22.960Z,1460
2018-03-15T14:13:31.898Z,895
2018-03-15T14:14:40.737Z,1275
2018-03-15T14:15:49.577Z,1130
2018-03-15T14:16:58.414Z,1380
2018-03-15T14:18:07.254Z,855
2018-03-15T14:19:16.094Z,1320
2018-03-15T14:20:24.933Z,1345
2018-03-15T14:21:34.335Z,1275
2018-03-15T14:22:43.176Z,885
2018-03-15T14:23:52.017Z,815
2018-03-15T14:25:01.138Z,1290
2018-03-15T14:26:09.977Z,845
2018-03-15T14:27:18.818Z,620
2018-03-15T14:28:27.656Z,810
2018-03-15T14:29:36.560Z,1485
2018-03-15T14:30:45.916Z,1345
2018-03-15T14:31:54.752Z,1425
2018-03-15T14:33:03.593Z,915
2018-03-15T14:34:12.712Z,1215
2018-03-15T14:35:21.553Z,890
2018-03-15T14:36:30.694Z,765
2018-03-15T14:37:39.532Z,675
2018-03-15T14:38:48.372Z,750
2018-03-15T14:39:57.212Z,625
2018-03-15T14:41:06.048Z,825
2018-03-15T14:42:15.420Z,740
2018-03-15T14:43:24.537Z,660
2018-03-15T14:44:34.215Z,1415
2018-03-15T14:45:43.052Z,625
2018-03-15T14:46:51.892Z,895
2018-03-15T14:48:00.983Z,1045
2018-03-15T14:49:10.108Z,635
2018-03-15T14:50:18.944Z,625
2018-03-15T14:51:27.806Z,845
2018-03-15T14:52:36.621Z,965
2018-03-15T14:53:45.662Z,960
2018-03-15T14:54:54.498Z,715
2018-03-15T14:56:03.334Z,1005
2018-03-15T14:57:12.181Z,1220
2018-03-15T14:58:21.018Z,1165
2018-03-15T14:59:29.956Z,1210
2018-03-15T15:00:38.796Z,870
2018-03-15T15:01:47.634Z,795
2018-03-15T15:02:56.478Z,630
2018-03-15T15:04:05.359Z,640
2018-03-15T15:05:43.953Z,670
2018-03-15T15:06:52.791Z,835
2018-03-15T15:08:01.628Z,765
2018-03-15T15:09:10.466Z,795
2018-03-15T15:10:20.262Z,745
2018-03-15T15:11:29.104Z,665
2018-03-15T15:12:37.938Z,725
2018-03-15T15:13:46.773Z,650
2018-03-15T15:14:55.614Z,635
2018-03-15T15:16:04.840Z,700
2018-03-15T15:17:13.684Z,610
2018-03-15T15:18:22.532Z,560
2018-03-15T15:19:31.381Z,620
2018-03-15T15:20:40.230Z,445
2018-03-15T15:21:49.352Z,460
2018-03-15T15:22:58.200Z,370
2018-03-15T15:24:07.041Z,275
2018-03-15T15:25:15.890Z,295
2018-03-15T15:26:24.739Z,310
2018-03-15T15:27:33.744Z,345
2018-03-15T15:28:42.586Z,370
2018-03-15T15:29:51.710Z,395
2018-03-15T15:31:00.833Z,395
2018-03-15T15:32:09.679Z,400
2018-03-15T15:33:18.623Z,395
2018-03-15T15:34:27.471Z,360
2018-03-15T15:35:36.592Z,375
2018-03-15T15:36:45.447Z,375
2018-03-15T15:37:54.282Z,350
2018-03-15T15:39:03.167Z,360
2018-03-15T15:40:12.001Z,315
2018-03-15T15:41:20.835Z,330
2018-03-15T15:42:29.673Z,285
2018-03-15T15:43:38.782Z,260
2018-03-15T15:44:47.617Z,210
2018-03-15T15:45:56.997Z,250
2018-03-15T15:47:05.832Z,250
2018-03-15T15:48:14.668Z,235
2018-03-15T15:49:23.778Z,270
2018-03-15T15:50:32.890Z,280
2018-03-15T15:51:41.737Z,205
2018-03-15T15:52:50.844Z,215
2018-03-15T15:53:59.679Z,220
2018-03-15T15:55:08.792Z,225
2018-03-15T15:56:17.723Z,255
2018-03-15T15:57:26.558Z,215
2018-03-15T15:58:35.390Z,230
2018-03-15T15:59:44.222Z,250
2018-03-15T16:00:53.054Z,190
2018-03-15T16:02:01.888Z,205
2018-03-15T16:03:10.721Z,180
2018-03-15T16:04:19.552Z,175
2018-03-15T16:05:28.388Z,165
2018-03-15T16:06:37.221Z,125
2018-03-15T16:07:46.329Z,115
2018-03-15T16:08:55.160Z,110
2018-03-15T16:10:03.994Z,100
2018-03-15T16:11:12.829Z,100
2018-03-15T16:12:21.711Z,95